Time;durP1;ratioP1;P1;durP2;ratioP2;P2;SDS_P1;SDS_P2;PMS_P1;PMS_P2;Temp;Humidity;BMP_temperature;BMP_pressure;BME280_temperature;BME280_humidity;BME280_pressure;Samples;Min_cycle;Max_cycle;Signal;HPM_P1;HPM_P2
2024/01/05 00:02:27;;;;;;;50.10;47.08;;;;;;;;;;5049396;28;20056;-76
2024/01/05 00:04:59;;;;;;;43.28;40.58;;;;;;;;;;5049136;28;20052;-76
2024/01/05 00:07:29;;;;;;;59.85;56.28;;;;;;;;;;5040044;28;20455;-75
2024/01/05 00:10:00;;;;;;;51.90;48.90;;;;;;;;;;5039355;28;20044;-74
2024/01/05 00:12:30;;;;;;;50.88;47.72;;;;;;;;;;5039590;28;20052;-74
2024/01/05 00:15:01;;;;;;;52.22;49.00;;;;;;;;;;5039730;28;20607;-76
2024/01/05 00:17:31;;;;;;;62.83;58.70;;;;;;;;;;5039918;28;20054;-76
2024/01/05 00:20:02;;;;;;;52.17;49.10;;;;;;;;;;5039300;28;20037;-75
2024/01/05 00:22:34;;;;;;;53.53;50.28;;;;;;;;;;5040061;28;20057;-75
2024/01/05 00:25:05;;;;;;;64.05;60.08;;;;;;;;;;5039654;28;20510;-74
2024/01/05 00:27:35;;;;;;;65.32;61.15;;;;;;;;;;5039200;28;20052;-75
2024/01/05 00:30:06;;;;;;;63.92;60.28;;;;;;;;;;5040030;28;20053;-74
2024/01/05 00:32:37;;;;;;;61.15;57.58;;;;;;;;;;5039872;28;20080;-74
2024/01/05 00:35:09;;;;;;;66.45;62.40;;;;;;;;;;5039464;28;20060;-77
2024/01/05 00:37:39;;;;;;;68.18;64.28;;;;;;;;;;5039441;28;20049;-74
2024/01/05 00:40:10;;;;;;;55.63;52.05;;;;;;;;;;5039701;28;20040;-80
2024/01/05 00:42:42;;;;;;;72.38;68.13;;;;;;;;;;5039706;28;20685;-76
2024/01/05 00:45:14;;;;;;;71.40;67.05;;;;;;;;;;5039624;28;20053;-75
2024/01/05 00:47:44;;;;;;;63.00;59.47;;;;;;;;;;5038799;28;20052;-76
2024/01/05 00:50:14;;;;;;;74.35;69.88;;;;;;;;;;5039361;28;20051;-73
2024/01/05 00:52:45;;;;;;;75.97;71.32;;;;;;;;;;5039045;28;20049;-74
2024/01/05 00:55:17;;;;;;;76.50;72.15;;;;;;;;;;5039714;28;20818;-74
2024/01/05 00:57:48;;;;;;;72.60;68.47;;;;;;;;;;5039320;28;20048;-76
2024/01/05 01:00:18;;;;;;;77.95;73.38;;;;;;;;;;5038816;28;20053;-74
2024/01/05 01:02:49;;;;;;;71.95;67.65;;;;;;;;;;5038989;28;20041;-74
2024/01/05 01:05:19;;;;;;;73.25;68.97;;;;;;;;;;5038859;28;20056;-73
2024/01/05 01:07:51;;;;;;;74.85;70.68;;;;;;;;;;5039522;28;20052;-76
2024/01/05 01:10:21;;;;;;;82.75;78.10;;;;;;;;;;5039193;28;20045;-74
2024/01/05 01:12:51;;;;;;;70.75;66.38;;;;;;;;;;5038952;28;20413;-75
2024/01/05 01:15:21;;;;;;;77.97;73.32;;;;;;;;;;5037981;28;20056;-76
2024/01/05 01:17:53;;;;;;;81.15;76.63;;;;;;;;;;5037037;28;20530;-75
2024/01/05 01:20:24;;;;;;;66.75;63.08;;;;;;;;;;5039416;28;20429;-75
2024/01/05 01:22:54;;;;;;;62.15;58.45;;;;;;;;;;5037763;28;20049;-74
2024/01/05 01:25:24;;;;;;;61.20;57.42;;;;;;;;;;5036827;28;20064;-75
2024/01/05 01:27:55;;;;;;;72.30;68.05;;;;;;;;;;5038810;28;20053;-75
2024/01/05 01:30:26;;;;;;;73.38;68.97;;;;;;;;;;5037397;28;20048;-74
2024/01/05 01:32:56;;;;;;;88.72;83.75;;;;;;;;;;5039481;28;20499;-75
2024/01/05 01:35:27;;;;;;;81.07;76.50;;;;;;;;;;5038953;28;20488;-75
2024/01/05 01:37:56;;;;;;;68.85;64.90;;;;;;;;;;5038737;28;20049;-75
2024/01/05 01:40:28;;;;;;;77.88;73.53;;;;;;;;;;5039202;28;20041;-75
2024/01/05 01:42:59;;;;;;;83.82;78.85;;;;;;;;;;5039335;28;20045;-74
2024/01/05 01:45:31;;;;;;;69.22;65.25;;;;;;;;;;5039030;28;20110;-75
2024/01/05 01:48:01;;;;;;;62.83;59.38;;;;;;;;;;5038807;28;20049;-76
2024/01/05 01:50:33;;;;;;;59.75;56.13;;;;;;;;;;5039025;28;20435;-75
2024/01/05 01:53:04;;;;;;;50.58;47.30;;;;;;;;;;5042698;28;20052;-77
2024/01/05 01:55:35;;;;;;;53.72;50.55;;;;;;;;;;5042879;28;20095;-74
2024/01/05 01:58:05;;;;;;;48.15;45.28;;;;;;;;;;5041098;28;20495;-75
2024/01/05 02:00:36;;;;;;;56.67;53.20;;;;;;;;;;5042758;28;20045;-75
2024/01/05 02:03:09;;;;;;;56.13;52.22;;;;;;;;;;5042651;28;20045;-79
2024/01/05 02:05:47;;;;;;;59.25;55.60;;;;;;;;;;5042318;28;20041;-75
2024/01/05 02:08:19;;;;;;;61.83;58.22;;;;;;;;;;5042629;28;20540;-74
2024/01/05 02:10:52;;;;;;;63.13;59.28;;;;;;;;;;5042315;28;20392;-73
2024/01/05 02:13:24;;;;;;;66.00;62.03;;;;;;;;;;5041894;28;20053;-75
2024/01/05 02:15:54;;;;;;;56.28;53.13;;;;;;;;;;5041417;28;20041;-75
2024/01/05 02:18:25;;;;;;;52.30;49.13;;;;;;;;;;5042016;28;20049;-75
2024/01/05 02:20:56;;;;;;;53.20;49.83;;;;;;;;;;5042706;28;20048;-74
2024/01/05 02:23:32;;;;;;;54.50;50.50;;;;;;;;;;5041040;28;20056;-75
2024/01/05 02:26:03;;;;;;;56.28;52.42;;;;;;;;;;5042287;28;20045;-75
2024/01/05 02:28:37;;;;;;;47.60;44.25;;;;;;;;;;5042160;28;20037;-74
2024/01/05 02:31:07;;;;;;;47.70;44.58;;;;;;;;;;5041819;28;20059;-76
2024/01/05 02:33:39;;;;;;;46.90;44.13;;;;;;;;;;5042349;28;20057;-76
2024/01/05 02:36:11;;;;;;;41.40;38.55;;;;;;;;;;5041467;28;20583;-74
2024/01/05 02:38:41;;;;;;;45.00;41.55;;;;;;;;;;5041991;28;20055;-74
2024/01/05 02:41:11;;;;;;;42.65;39.90;;;;;;;;;;5040874;28;20041;-74
2024/01/05 02:43:42;;;;;;;50.38;47.20;;;;;;;;;;5041901;28;20049;-75
2024/01/05 02:46:13;;;;;;;51.10;47.92;;;;;;;;;;5041981;28;20053;-75
2024/01/05 02:48:44;;;;;;;54.83;51.22;;;;;;;;;;5041622;28;20045;-74
2024/01/05 02:51:15;;;;;;;46.13;42.90;;;;;;;;;;5041843;28;20049;-74
2024/01/05 02:53:46;;;;;;;45.40;42.28;;;;;;;;;;5041851;28;20041;-75
2024/01/05 02:56:23;;;;;;;49.10;46.00;;;;;;;;;;5041428;28;20397;-77
2024/01/05 02:58:55;;;;;;;52.13;48.83;;;;;;;;;;5041542;28;20079;-75
2024/01/05 03:01:25;;;;;;;49.75;46.72;;;;;;;;;;5041721;28;20516;-75
2024/01/05 03:03:55;;;;;;;65.80;62.00;;;;;;;;;;5040301;28;20671;-76
2024/01/05 03:06:27;;;;;;;75.80;71.15;;;;;;;;;;5041384;28;20048;-74
2024/01/05 03:08:58;;;;;;;76.43;71.95;;;;;;;;;;5041935;28;20040;-75
2024/01/05 03:11:28;;;;;;;81.97;77.40;;;;;;;;;;5041263;28;20044;-75
2024/01/05 03:13:58;;;;;;;77.93;73.22;;;;;;;;;;5040524;28;20724;-76
2024/01/05 03:16:29;;;;;;;69.50;65.43;;;;;;;;;;5041320;28;20424;-75
2024/01/05 03:19:00;;;;;;;73.32;69.05;;;;;;;;;;5040994;28;20504;-75
2024/01/05 03:21:32;;;;;;;72.97;68.40;;;;;;;;;;5040940;28;20056;-76
2024/01/05 03:24:03;;;;;;;72.20;67.72;;;;;;;;;;5041307;28;20060;-76
2024/01/05 03:26:33;;;;;;;65.20;61.33;;;;;;;;;;5040395;28;20041;-75
2024/01/05 03:29:03;;;;;;;66.53;62.30;;;;;;;;;;5040921;28;20045;-75
2024/01/05 03:31:34;;;;;;;72.63;68.13;;;;;;;;;;5040331;28;20045;-75
2024/01/05 03:34:05;;;;;;;59.67;56.13;;;;;;;;;;5040766;28;20049;-74
2024/01/05 03:36:35;;;;;;;65.53;61.38;;;;;;;;;;5041086;28;20053;-76
2024/01/05 03:39:09;;;;;;;73.85;69.38;;;;;;;;;;5041030;28;20044;-74
2024/01/05 03:41:40;;;;;;;83.90;78.88;;;;;;;;;;5040925;28;20423;-75
2024/01/05 03:44:11;;;;;;;77.68;72.85;;;;;;;;;;5041491;28;20041;-76
2024/01/05 03:46:41;;;;;;;83.65;78.70;;;;;;;;;;5040479;28;20115;-75
2024/01/05 03:49:15;;;;;;;72.32;67.70;;;;;;;;;;5041028;28;20049;-76
2024/01/05 03:51:46;;;;;;;81.03;76.35;;;;;;;;;;5040425;28;20059;-75
2024/01/05 03:54:16;;;;;;;81.47;76.72;;;;;;;;;;5039969;28;20044;-76
2024/01/05 03:56:46;;;;;;;79.13;74.57;;;;;;;;;;5040348;28;20052;-74
2024/01/05 03:59:16;;;;;;;75.72;71.45;;;;;;;;;;5039868;28;20053;-75
2024/01/05 04:01:49;;;;;;;77.05;72.15;;;;;;;;;;5040533;28;20060;-75
2024/01/05 04:04:20;;;;;;;74.38;69.88;;;;;;;;;;5039151;28;20064;-76
2024/01/05 04:06:51;;;;;;;80.45;75.50;;;;;;;;;;5040838;28;20048;-76
2024/01/05 04:09:22;;;;;;;74.28;69.82;;;;;;;;;;5038969;28;20061;-74
2024/01/05 04:11:52;;;;;;;74.43;69.88;;;;;;;;;;5039678;28;20060;-76
2024/01/05 04:14:23;;;;;;;70.05;65.72;;;;;;;;;;5039662;28;20522;-76
2024/01/05 04:16:54;;;;;;;75.75;71.28;;;;;;;;;;5040189;28;20045;-76
2024/01/05 04:19:25;;;;;;;69.00;64.90;;;;;;;;;;5040253;28;20496;-75
2024/01/05 04:21:55;;;;;;;68.05;64.13;;;;;;;;;;5038322;28;20048;-76
2024/01/05 04:24:25;;;;;;;68.72;64.53;;;;;;;;;;5039927;28;20508;-75
2024/01/05 04:26:56;;;;;;;74.25;69.57;;;;;;;;;;5040621;28;20048;-76
2024/01/05 04:29:27;;;;;;;65.20;61.25;;;;;;;;;;5040133;28;20048;-75
2024/01/05 04:31:57;;;;;;;79.97;75.32;;;;;;;;;;5038518;28;20053;-75
2024/01/05 04:34:27;;;;;;;76.70;72.35;;;;;;;;;;5040122;28;20044;-76
2024/01/05 04:36:59;;;;;;;73.85;69.57;;;;;;;;;;5038005;28;20053;-75
2024/01/05 04:39:31;;;;;;;68.18;63.83;;;;;;;;;;5039468;28;20059;-76
2024/01/05 04:42:01;;;;;;;67.45;63.33;;;;;;;;;;5039531;28;20048;-76
2024/01/05 04:44:31;;;;;;;72.13;67.80;;;;;;;;;;5037768;28;20049;-75
2024/01/05 04:47:01;;;;;;;76.35;71.57;;;;;;;;;;5039988;28;20048;-76
2024/01/05 04:49:33;;;;;;;68.40;64.45;;;;;;;;;;5039733;28;20041;-75
2024/01/05 04:52:05;;;;;;;77.55;72.68;;;;;;;;;;5039391;28;20060;-75
2024/01/05 04:54:37;;;;;;;69.45;65.32;;;;;;;;;;5038224;28;20417;-76
2024/01/05 04:57:07;;;;;;;67.53;63.67;;;;;;;;;;5038347;28;20053;-75
2024/01/05 04:59:37;;;;;;;69.75;65.32;;;;;;;;;;5039532;28;20052;-75
2024/01/05 05:02:09;;;;;;;71.40;67.35;;;;;;;;;;5039243;28;20053;-76
2024/01/05 05:04:40;;;;;;;69.82;65.82;;;;;;;;;;5038714;28;20053;-77
2024/01/05 05:07:13;;;;;;;61.45;57.53;;;;;;;;;;5039203;28;20152;-75
2024/01/05 05:09:43;;;;;;;68.53;64.72;;;;;;;;;;5039011;28;20052;-76
2024/01/05 05:12:14;;;;;;;68.32;64.22;;;;;;;;;;5037262;28;20056;-75
2024/01/05 05:14:44;;;;;;;63.63;60.10;;;;;;;;;;5039329;28;20404;-75
2024/01/05 05:17:14;;;;;;;72.90;68.57;;;;;;;;;;5038865;28;20522;-76
2024/01/05 05:19:45;;;;;;;63.72;59.58;;;;;;;;;;5038378;28;20805;-76
2024/01/05 05:22:15;;;;;;;58.95;55.28;;;;;;;;;;5039831;28;20045;-75
2024/01/05 05:24:46;;;;;;;63.15;59.25;;;;;;;;;;5038810;28;20733;-75
2024/01/05 05:27:18;;;;;;;73.70;69.05;;;;;;;;;;5042303;28;20063;-75
2024/01/05 05:29:49;;;;;;;66.70;62.72;;;;;;;;;;5043735;28;20048;-75
2024/01/05 05:32:19;;;;;;;67.45;63.53;;;;;;;;;;5042809;28;20064;-76
2024/01/05 05:34:52;;;;;;;69.35;65.47;;;;;;;;;;5042956;28;20049;-76
2024/01/05 05:37:22;;;;;;;76.38;71.85;;;;;;;;;;5042813;28;20523;-75
2024/01/05 05:39:52;;;;;;;72.00;67.53;;;;;;;;;;5041905;28;20045;-75
2024/01/05 05:42:23;;;;;;;77.15;72.63;;;;;;;;;;5043599;28;20056;-75
2024/01/05 05:44:53;;;;;;;73.38;69.10;;;;;;;;;;5043571;28;20049;-76
2024/01/05 05:47:24;;;;;;;76.00;71.03;;;;;;;;;;5043415;28;20060;-76
2024/01/05 05:49:54;;;;;;;68.22;64.05;;;;;;;;;;5042438;28;20049;-75
2024/01/05 05:52:25;;;;;;;70.05;65.88;;;;;;;;;;5043045;28;20045;-77
2024/01/05 05:54:58;;;;;;;71.75;67.07;;;;;;;;;;5042386;28;20412;-75
2024/01/05 05:57:31;;;;;;;69.40;65.28;;;;;;;;;;5042618;28;20045;-75
2024/01/05 06:00:03;;;;;;;70.78;66.40;;;;;;;;;;5042798;28;20045;-76
2024/01/05 06:02:35;;;;;;;67.03;63.15;;;;;;;;;;5042466;28;20484;-77
2024/01/05 06:05:06;;;;;;;72.10;67.85;;;;;;;;;;5042695;28;20056;-75
2024/01/05 06:07:36;;;;;;;64.47;60.53;;;;;;;;;;5042570;28;20049;-75
2024/01/05 06:10:08;;;;;;;65.55;61.53;;;;;;;;;;5043330;28;20041;-76
2024/01/05 06:12:39;;;;;;;63.50;59.85;;;;;;;;;;5042520;28;20049;-76
2024/01/05 06:15:09;;;;;;;72.00;67.82;;;;;;;;;;5042316;28;20068;-75
2024/01/05 06:17:40;;;;;;;72.15;68.13;;;;;;;;;;5040915;28;20524;-75
2024/01/05 06:20:11;;;;;;;66.18;62.38;;;;;;;;;;5042762;28;20049;-75
2024/01/05 06:22:42;;;;;;;68.22;64.43;;;;;;;;;;5042499;28;20048;-76
2024/01/05 06:25:12;;;;;;;69.13;65.25;;;;;;;;;;5042006;28;20075;-76
2024/01/05 06:27:42;;;;;;;44.53;41.58;;;;;;;;;;5042524;28;20044;-75
2024/01/05 06:30:14;;;;;;;67.70;63.58;;;;;;;;;;5042429;28;20055;-75
2024/01/05 06:32:45;;;;;;;65.90;61.05;;;;;;;;;;5042163;28;20053;-76
2024/01/05 06:35:15;;;;;;;67.93;63.67;;;;;;;;;;5041600;28;20052;-75
2024/01/05 06:37:46;;;;;;;64.32;59.80;;;;;;;;;;5041389;28;20056;-76
2024/01/05 06:40:18;;;;;;;67.85;63.13;;;;;;;;;;5041553;28;20051;-76
2024/01/05 06:42:49;;;;;;;65.28;61.03;;;;;;;;;;5041654;28;20056;-74
2024/01/05 06:45:19;;;;;;;65.20;61.60;;;;;;;;;;5042173;28;20049;-76
2024/01/05 06:47:50;;;;;;;72.82;67.78;;;;;;;;;;5040818;28;20615;-77
2024/01/05 06:50:21;;;;;;;69.22;65.18;;;;;;;;;;5041522;28;20055;-75
2024/01/05 06:52:52;;;;;;;73.82;69.43;;;;;;;;;;5040417;28;20075;-75
2024/01/05 06:55:22;;;;;;;68.93;64.65;;;;;;;;;;5041892;28;20049;-75
2024/01/05 06:57:52;;;;;;;74.00;69.38;;;;;;;;;;5041886;28;20052;-75
2024/01/05 07:00:23;;;;;;;71.25;66.90;;;;;;;;;;5041846;28;20049;-76
2024/01/05 07:02:55;;;;;;;66.95;63.10;;;;;;;;;;5041319;28;20404;-75
2024/01/05 07:05:25;;;;;;;68.18;63.78;;;;;;;;;;5041375;28;20427;-75
2024/01/05 07:07:55;;;;;;;73.18;68.55;;;;;;;;;;5040922;28;20504;-75
2024/01/05 07:10:25;;;;;;;65.05;61.17;;;;;;;;;;5041057;28;20072;-74
2024/01/05 07:12:56;;;;;;;59.92;56.28;;;;;;;;;;5041063;28;20049;-74
2024/01/05 07:15:29;;;;;;;62.08;58.22;;;;;;;;;;5041057;28;20045;-75
2024/01/05 07:17:59;;;;;;;61.95;58.28;;;;;;;;;;5041865;28;20678;-75
2024/01/05 07:20:30;;;;;;;58.80;55.53;;;;;;;;;;5041060;28;20049;-76
2024/01/05 07:23:02;;;;;;;57.17;53.08;;;;;;;;;;5041646;28;20057;-75
2024/01/05 07:25:32;;;;;;;63.47;59.55;;;;;;;;;;5040993;28;20048;-75
2024/01/05 07:28:05;;;;;;;59.75;55.83;;;;;;;;;;5041473;28;20049;-75
2024/01/05 07:30:35;;;;;;;64.25;60.45;;;;;;;;;;5041488;28;20064;-75
2024/01/05 07:33:08;;;;;;;61.42;57.83;;;;;;;;;;5041205;28;20041;-76
2024/01/05 07:35:39;;;;;;;54.88;51.60;;;;;;;;;;5041173;28;20057;-76
2024/01/05 07:38:10;;;;;;;64.93;61.22;;;;;;;;;;5040779;28;20049;-76
2024/01/05 07:40:40;;;;;;;56.10;52.75;;;;;;;;;;5040879;28;20055;-74
2024/01/05 07:43:13;;;;;;;62.00;57.90;;;;;;;;;;5040870;28;20633;-75
2024/01/05 07:45:44;;;;;;;60.88;56.88;;;;;;;;;;5040703;28;20500;-73
2024/01/05 07:48:16;;;;;;;62.22;58.60;;;;;;;;;;5040102;28;20049;-74
2024/01/05 07:50:47;;;;;;;65.13;61.30;;;;;;;;;;5038115;28;20508;-76
2024/01/05 07:53:18;;;;;;;55.63;52.17;;;;;;;;;;5039167;28;20076;-75
2024/01/05 07:55:49;;;;;;;57.70;54.30;;;;;;;;;;5040044;28;20059;-74
2024/01/05 07:58:20;;;;;;;59.85;56.33;;;;;;;;;;5040297;28;20531;-75
2024/01/05 08:00:50;;;;;;;67.43;63.63;;;;;;;;;;5040787;28;20052;-75
2024/01/05 08:03:21;;;;;;;64.65;61.03;;;;;;;;;;5039960;28;20048;-75
2024/01/05 08:05:54;;;;;;;64.28;60.03;;;;;;;;;;5040371;28;20037;-75
2024/01/05 08:08:24;;;;;;;67.68;63.70;;;;;;;;;;5040179;28;20519;-75
2024/01/05 08:10:54;;;;;;;61.85;58.35;;;;;;;;;;5040185;28;20056;-74
2024/01/05 08:13:27;;;;;;;61.03;57.33;;;;;;;;;;5040401;28;20056;-75
2024/01/05 08:15:58;;;;;;;68.90;64.63;;;;;;;;;;5040032;28;20052;-74
2024/01/05 08:18:28;;;;;;;60.65;56.60;;;;;;;;;;5040125;28;20052;-74
2024/01/05 08:21:00;;;;;;;58.15;54.75;;;;;;;;;;5038579;28;20059;-74
2024/01/05 08:23:31;;;;;;;65.63;61.90;;;;;;;;;;5039877;28;20428;-76
2024/01/05 08:26:03;;;;;;;64.90;61.17;;;;;;;;;;5038560;28;20056;-75
2024/01/05 08:28:34;;;;;;;69.15;65.05;;;;;;;;;;5040035;28;20049;-74
2024/01/05 08:31:05;;;;;;;69.53;65.32;;;;;;;;;;5039433;28;20059;-74
2024/01/05 08:33:37;;;;;;;60.60;56.80;;;;;;;;;;5039845;28;20511;-75
2024/01/05 08:36:09;;;;;;;61.20;57.35;;;;;;;;;;5038166;28;20057;-74
2024/01/05 08:38:39;;;;;;;64.30;60.75;;;;;;;;;;5039206;28;20048;-73
2024/01/05 08:41:09;;;;;;;60.05;56.65;;;;;;;;;;5039949;28;20044;-74
2024/01/05 08:43:43;;;;;;;71.88;67.40;;;;;;;;;;5039354;28;20048;-74
2024/01/05 08:46:14;;;;;;;60.70;57.05;;;;;;;;;;5039429;28;20484;-75
2024/01/05 08:48:45;;;;;;;63.22;59.25;;;;;;;;;;5040109;28;20052;-76
2024/01/05 08:51:16;;;;;;;64.70;61.05;;;;;;;;;;5039809;28;20041;-78
2024/01/05 08:53:45;;;;;;;73.75;69.55;;;;;;;;;;5039908;28;20052;-75
2024/01/05 08:56:17;;;;;;;70.25;66.15;;;;;;;;;;5039271;28;20056;-75
2024/01/05 08:58:48;;;;;;;74.97;70.55;;;;;;;;;;5039420;28;20497;-75
2024/01/05 09:01:19;;;;;;;73.43;69.10;;;;;;;;;;5039270;28;20055;-77
2024/01/05 09:03:51;;;;;;;72.50;67.88;;;;;;;;;;5039335;28;20053;-76
2024/01/05 09:06:23;;;;;;;69.45;65.47;;;;;;;;;;5039353;28;20049;-74
2024/01/05 09:08:55;;;;;;;70.65;66.40;;;;;;;;;;5040008;28;20053;-74
2024/01/05 09:11:26;;;;;;;73.68;69.53;;;;;;;;;;5041668;28;20610;-76
2024/01/05 09:13:56;;;;;;;71.53;67.50;;;;;;;;;;5042461;28;20060;-76
2024/01/05 09:16:27;;;;;;;63.72;60.00;;;;;;;;;;5042296;28;20052;-73
2024/01/05 09:18:58;;;;;;;72.80;68.88;;;;;;;;;;5041897;28;20399;-76
2024/01/05 09:21:29;;;;;;;74.85;70.22;;;;;;;;;;5041859;28;20416;-74
2024/01/05 09:23:59;;;;;;;66.95;63.15;;;;;;;;;;5041834;28;20053;-74
2024/01/05 09:26:31;;;;;;;73.55;69.25;;;;;;;;;;5041384;28;20611;-76
2024/01/05 09:29:04;;;;;;;75.65;70.88;;;;;;;;;;5041908;28;20044;-75
2024/01/05 09:31:35;;;;;;;75.88;71.72;;;;;;;;;;5041504;28;20443;-74
2024/01/05 09:34:06;;;;;;;75.80;71.38;;;;;;;;;;5041351;28;20048;-76
2024/01/05 09:36:41;;;;;;;71.53;67.28;;;;;;;;;;5041160;28;20053;-76
2024/01/05 09:39:13;;;;;;;82.00;77.43;;;;;;;;;;5042152;28;20052;-75
2024/01/05 09:41:47;;;;;;;79.55;74.95;;;;;;;;;;5040497;28;20508;-74
2024/01/05 09:44:17;;;;;;;77.38;72.65;;;;;;;;;;5041977;28;20045;-74
2024/01/05 09:46:48;;;;;;;82.32;77.50;;;;;;;;;;5041945;28;20416;-76
2024/01/05 09:49:18;;;;;;;78.95;74.22;;;;;;;;;;5040150;28;20049;-76
2024/01/05 09:51:52;;;;;;;84.47;79.47;;;;;;;;;;5042130;28;20059;-76
2024/01/05 09:54:23;;;;;;;77.90;73.30;;;;;;;;;;5041516;28;20052;-76
2024/01/05 09:56:53;;;;;;;78.47;73.95;;;;;;;;;;5041312;28;20055;-76
2024/01/05 09:59:26;;;;;;;85.65;80.78;;;;;;;;;;5041764;28;20053;-75
2024/01/05 10:02:00;;;;;;;81.65;76.95;;;;;;;;;;5041564;28;20048;-75
2024/01/05 10:04:30;;;;;;;75.95;71.57;;;;;;;;;;5041346;28;20052;-74
2024/01/05 10:07:01;;;;;;;77.80;73.38;;;;;;;;;;5041158;28;20057;-75
2024/01/05 10:09:32;;;;;;;69.57;65.22;;;;;;;;;;5040983;28;20056;-75
2024/01/05 10:12:12;;;;;;;68.75;64.68;;;;;;;;;;5040840;28;20772;-76
2024/01/05 10:14:44;;;;;;;76.55;72.00;;;;;;;;;;5045404;28;20551;-76
2024/01/05 10:17:17;;;;;;;74.32;69.32;;;;;;;;;;5045641;28;20045;-75
2024/01/05 10:19:48;;;;;;;77.05;72.78;;;;;;;;;;5045566;28;20068;-76
2024/01/05 10:22:20;;;;;;;73.78;69.60;;;;;;;;;;5046210;28;20041;-75
2024/01/05 10:24:51;;;;;;;68.25;64.40;;;;;;;;;;5043409;28;20809;-75
2024/01/05 10:27:28;;;;;;;65.10;61.28;;;;;;;;;;5045732;28;20052;-74
2024/01/05 10:29:58;;;;;;;67.47;63.45;;;;;;;;;;5045728;28;20048;-81
2024/01/05 10:32:29;;;;;;;56.45;53.30;;;;;;;;;;5045007;28;20127;-74
2024/01/05 10:35:00;;;;;;;56.33;53.17;;;;;;;;;;5044671;28;20060;-76
2024/01/05 10:37:30;;;;;;;57.55;54.22;;;;;;;;;;5045013;28;20473;-81
2024/01/05 10:40:04;;;;;;;56.28;53.10;;;;;;;;;;5044377;28;20535;-75
2024/01/05 10:42:35;;;;;;;57.33;54.22;;;;;;;;;;5044447;28;20056;-80
2024/01/05 10:45:06;;;;;;;53.75;50.53;;;;;;;;;;5044774;28;20056;-75
2024/01/05 10:47:39;;;;;;;41.80;39.55;;;;;;;;;;5047900;28;20048;-76
2024/01/05 10:50:12;;;;;;;40.35;37.42;;;;;;;;;;5064157;28;20048;-75
2024/01/05 10:52:44;;;;;;;45.38;42.33;;;;;;;;;;5064386;28;20055;-76
2024/01/05 10:55:18;;;;;;;38.05;35.72;;;;;;;;;;5064374;28;20052;-76
2024/01/05 10:57:48;;;;;;;45.15;42.45;;;;;;;;;;5064235;28;20410;-76
2024/01/05 11:00:18;;;;;;;44.08;41.40;;;;;;;;;;5064025;28;20041;-74
2024/01/05 11:02:50;;;;;;;38.17;36.05;;;;;;;;;;5064728;28;20495;-75
2024/01/05 11:05:24;;;;;;;41.22;38.78;;;;;;;;;;5064035;28;20056;-76
2024/01/05 11:07:58;;;;;;;42.00;39.50;;;;;;;;;;5063355;28;20071;-76
2024/01/05 11:10:58;;;;;;;46.83;44.05;;;;;;;;;;5064130;28;20508;-75
2024/01/05 11:13:40;;;;;;;51.03;48.13;;;;;;;;;;5064209;28;20040;-75
2024/01/05 11:16:41;;;;;;;48.60;46.00;;;;;;;;;;5063954;28;20045;-75
2024/01/05 11:19:39;;;;;;;44.45;41.75;;;;;;;;;;5062446;28;20060;-75
2024/01/05 11:22:15;;;;;;;56.78;53.50;;;;;;;;;;5064108;28;20063;-75
2024/01/05 11:24:47;;;;;;;56.70;53.28;;;;;;;;;;5061244;28;20063;-73
2024/01/05 11:27:46;;;;;;;41.67;39.28;;;;;;;;;;5063254;28;20071;-76
2024/01/05 11:30:41;;;;;;;36.90;34.80;;;;;;;;;;5062738;28;20060;-75
2024/01/05 11:33:58;;;;;;;45.80;43.25;;;;;;;;;;5061661;28;20051;-76
2024/01/05 11:36:51;;;;;;;41.95;39.60;;;;;;;;;;5062224;28;20059;-76
2024/01/05 11:39:44;;;;;;;43.45;40.85;;;;;;;;;;5063149;28;20052;-75
2024/01/05 11:42:24;;;;;;;38.95;36.33;;;;;;;;;;5062763;28;20052;-76
2024/01/05 11:44:56;;;;;;;36.33;34.10;;;;;;;;;;5063360;28;20049;-76
2024/01/05 11:47:45;;;;;;;43.33;40.90;;;;;;;;;;5063151;28;20044;-75
2024/01/05 11:50:27;;;;;;;38.00;35.92;;;;;;;;;;5062297;28;20510;-75
2024/01/05 11:53:18;;;;;;;45.13;42.60;;;;;;;;;;5062836;28;20048;-77
2024/01/05 11:55:53;;;;;;;44.38;41.75;;;;;;;;;;5062939;28;20044;-78
2024/01/05 11:58:35;;;;;;;;;;;;;;;;;;5063853;28;20055;-76
2024/01/05 12:01:12;;;;;;;37.88;35.40;;;;;;;;;;5062664;28;19947;-75
2024/01/05 12:03:43;;;;;;;37.60;35.53;;;;;;;;;;5063145;28;20059;-75
2024/01/05 12:06:14;;;;;;;36.65;34.67;;;;;;;;;;5061094;28;20606;-74
2024/01/05 12:08:44;;;;;;;36.83;34.88;;;;;;;;;;5062482;28;20045;-76
2024/01/05 12:11:16;;;;;;;32.38;30.65;;;;;;;;;;5062467;28;20048;-76
2024/01/05 12:13:46;;;;;;;35.53;33.60;;;;;;;;;;5063416;28;20412;-85
2024/01/05 12:16:17;;;;;;;37.00;34.78;;;;;;;;;;5063228;28;20049;-77
2024/01/05 12:18:52;;;;;;;38.83;36.72;;;;;;;;;;5062954;28;20574;-76
2024/01/05 12:21:23;;;;;;;;;;;;;;;;;;5063670;28;20063;-77
2024/01/05 12:23:56;;;;;;;40.58;38.30;;;;;;;;;;5062411;28;19925;-75
2024/01/05 12:26:29;;;;;;;36.65;34.72;;;;;;;;;;5062606;28;20051;-75
2024/01/05 12:28:59;;;;;;;29.85;27.95;;;;;;;;;;5062380;28;20550;-76
2024/01/05 12:31:30;;;;;;;39.25;37.15;;;;;;;;;;5062360;28;20063;-76
2024/01/05 12:34:03;;;;;;;32.58;30.80;;;;;;;;;;5062674;28;20044;-85
2024/01/05 12:36:33;;;;;;;41.47;39.30;;;;;;;;;;5061528;28;20538;-81
2024/01/05 12:39:11;;;;;;;41.03;38.67;;;;;;;;;;5062443;28;20044;-76
2024/01/05 12:41:46;;;;;;;35.42;33.53;;;;;;;;;;5062446;28;20296;-81
2024/01/05 12:44:17;;;;;;;43.53;41.20;;;;;;;;;;5062264;28;20047;-76
2024/01/05 12:46:48;;;;;;;24.90;23.23;;;;;;;;;;5062008;28;20036;-77
2024/01/05 12:49:23;;;;;;;34.92;32.80;;;;;;;;;;5062521;28;20051;-75
2024/01/05 12:51:56;;;;;;;32.55;30.73;;;;;;;;;;5062285;28;20048;-75
2024/01/05 12:54:27;;;;;;;29.55;28.02;;;;;;;;;;5062606;28;20051;-84
2024/01/05 12:56:58;;;;;;;35.90;33.83;;;;;;;;;;5061907;28;20056;-80
2024/01/05 12:59:30;;;;;;;38.08;35.95;;;;;;;;;;5062600;28;20045;-81
2024/01/05 13:02:02;;;;;;;37.90;35.78;;;;;;;;;;5062409;28;20491;-75
2024/01/05 13:04:34;;;;;;;29.20;27.67;;;;;;;;;;5062154;28;20423;-76
2024/01/05 13:07:11;;;;;;;36.88;34.92;;;;;;;;;;5061936;28;20044;-73
2024/01/05 13:09:41;;;;;;;34.95;33.10;;;;;;;;;;5060620;28;20066;-76
2024/01/05 13:12:12;;;;;;;37.67;35.65;;;;;;;;;;5062307;28;20052;-76
2024/01/05 13:14:43;;;;;;;31.48;29.83;;;;;;;;;;5061944;28;20075;-76
2024/01/05 13:17:14;;;;;;;29.95;28.30;;;;;;;;;;5061795;28;20270;-76
2024/01/05 13:19:44;;;;;;;42.70;40.28;;;;;;;;;;5061794;28;20058;-76
2024/01/05 13:22:16;;;;;;;26.73;25.17;;;;;;;;;;5061703;28;20384;-75
2024/01/05 13:24:47;;;;;;;32.67;30.80;;;;;;;;;;5061629;28;20500;-80
2024/01/05 13:27:18;;;;;;;29.88;28.17;;;;;;;;;;5061750;28;20044;-76
2024/01/05 13:29:50;;;;;;;30.20;28.60;;;;;;;;;;5060833;28;20056;-76
2024/01/05 13:32:20;;;;;;;32.80;31.10;;;;;;;;;;5061468;28;20048;-76
2024/01/05 13:34:51;;;;;;;28.08;26.40;;;;;;;;;;5062130;28;20055;-76
2024/01/05 13:37:24;;;;;;;26.25;24.75;;;;;;;;;;5060904;28;20055;-84
2024/01/05 13:39:54;;;;;;;27.17;25.38;;;;;;;;;;5062409;28;20045;-76
2024/01/05 13:42:26;;;;;;;28.00;26.48;;;;;;;;;;5061495;28;20056;-77
2024/01/05 13:44:58;;;;;;;36.25;33.95;;;;;;;;;;5061682;28;20503;-76
2024/01/05 13:47:32;;;;;;;30.20;28.55;;;;;;;;;;5061479;28;20045;-76
2024/01/05 13:50:03;;;;;;;33.92;32.13;;;;;;;;;;5065703;28;20407;-76
2024/01/05 13:52:33;;;;;;;31.48;29.70;;;;;;;;;;5065330;28;20052;-75
2024/01/05 13:55:05;;;;;;;26.58;25.13;;;;;;;;;;5064167;28;20056;-76
2024/01/05 13:57:37;;;;;;;27.98;26.38;;;;;;;;;;5065272;28;20059;-82
2024/01/05 14:00:08;;;;;;;44.03;41.45;;;;;;;;;;5065358;28;20040;-76
2024/01/05 14:02:39;;;;;;;47.30;44.67;;;;;;;;;;5064992;28;20448;-76
2024/01/05 14:05:10;;;;;;;29.33;27.60;;;;;;;;;;5065291;28;20047;-75
2024/01/05 14:07:41;;;;;;;27.80;26.25;;;;;;;;;;5065327;28;20523;-75
2024/01/05 14:10:11;;;;;;;27.85;26.33;;;;;;;;;;5065380;28;20044;-76
2024/01/05 14:12:42;;;;;;;32.95;30.95;;;;;;;;;;5065569;28;20044;-78
2024/01/05 14:15:13;;;;;;;36.25;34.28;;;;;;;;;;5064962;28;20045;-76
2024/01/05 14:17:45;;;;;;;32.63;30.73;;;;;;;;;;5065236;28;20487;-76
2024/01/05 14:20:15;;;;;;;34.08;32.03;;;;;;;;;;5063043;28;20079;-75
2024/01/05 14:22:46;;;;;;;29.08;27.35;;;;;;;;;;5064984;28;20057;-75
2024/01/05 14:25:16;;;;;;;37.28;35.17;;;;;;;;;;5064798;28;20051;-75
2024/01/05 14:27:47;;;;;;;28.30;26.77;;;;;;;;;;5065157;28;20044;-76
2024/01/05 14:30:18;;;;;;;26.75;25.27;;;;;;;;;;5064798;28;20055;-75
2024/01/05 14:32:48;;;;;;;37.25;35.03;;;;;;;;;;5064093;28;20041;-75
2024/01/05 14:35:20;;;;;;;30.92;29.17;;;;;;;;;;5064693;28;20044;-79
2024/01/05 14:37:51;;;;;;;27.35;25.75;;;;;;;;;;5065112;28;20065;-76
2024/01/05 14:40:22;;;;;;;25.65;24.13;;;;;;;;;;5064862;28;20055;-76
2024/01/05 14:42:52;;;;;;;27.60;26.00;;;;;;;;;;5064906;28;20051;-76
2024/01/05 14:45:23;;;;;;;26.83;25.35;;;;;;;;;;5065101;28;20040;-76
2024/01/05 14:47:54;;;;;;;31.02;29.23;;;;;;;;;;5064450;28;20052;-75